Aérodrome :
LOGIN :

S'inscrire | Disclaimer

   EN    FR    IT 

 










Légende :    VFR   VFR Marginal   IFR   IFR Intensif   IFR Très Intensif
Visi : 
Plafond : 
>= 8 km
>= 3000ft
5 à 8 km
1000 à 3000 ft
1500m à 5 km
500 à 1000 ft
800 à 1500m
200 à 500 ft
< 800m
< 200 ft
Symboles :   Orages  Brouillard  Fortes neiges  Fortes précipitations  Vent > 20 kt
SIGMETs :   Divers  Orages  Givrage  Turbulence  Onde Orograph.  Cendres Volcan.






- Altitude de l'aérodrome : 502 ft
- Code IATA : ORK


EICK - Cork

DERNIER METAR :
  • 090200Z 29031G45KT 9999 FEW018 BKN030 08/03 Q1006 NOSIG

METARs EXPIRÉS :
  • 090130Z 30033G50KT 9999 FEW018 BKN030 08/03 Q1005 NOSIG
  • 090100Z 30037G54KT 9999 FEW018 BKN030 08/03 Q1004 NOSIG
  • 090030Z 30032G50KT 9999 -SHRA FEW018 BKN028 08/03 Q1003 NOSIG
  • 090000Z 30033G46KT 9999 -SHRA FEW018 BKN028 08/03 Q1002 NOSIG
  • 082330Z 29035G49KT 9999 FEW018 BKN028 08/03 Q1001 WS RWY34 NOSIG

TAF TAF EICK
Valide du 09 à 00h jusqu'au 10 à 00h UTC


082300Z 0900/0924 30030G48KT 9999 SCT018 BKN030
TEMPO 0900/0905 5000 SHRA BKN014 SCT018CB
BECMG 0903/0905 31025G38KT
BECMG 0905/0907 31018G28KT
BECMG 0908/0910 29012KT
BECMG 0913/0915 22007KT
BECMG 0919/0922 20017G28KT -RA BKN012



MET'MAP, la Météo Aéronautique d'un coup d'oeil ! - Copyright ORBIFLY Décembre 2007 - Disclaimer

ORBIFLY MET'MAP TEAM :

Programmation & Développement : Alexandra Zaïnal
Sur une idée originale de : Baudouin d'Aumeries
Assistance à la programmation : Marc-Olivier Méhu
Soutien technique & logistique : Manuel Goepfert

Contact : metmap@orbifly.com




SOURCES & CREDITS :

   NOAA